sensor_id;sensor_type;location;lat;lon;timestamp;temperature;humidity
54082;DHT22;39986;50.770;0.266;2022-12-18T00:01:38;3.10;99.90
54082;DHT22;39986;50.770;0.266;2022-12-18T00:04:04;3.20;99.90
54082;DHT22;39986;50.770;0.266;2022-12-18T00:06:30;3.10;99.90
54082;DHT22;39986;50.770;0.266;2022-12-18T00:08:56;3.10;99.90
54082;DHT22;39986;50.770;0.266;2022-12-18T00:11:24;3.20;99.90
54082;DHT22;39986;50.770;0.266;2022-12-18T00:13:50;3.20;99.90
54082;DHT22;39986;50.770;0.266;2022-12-18T00:16:19;4.40;99.90
54082;DHT22;39986;50.770;0.266;2022-12-18T00:18:46;3.10;99.90
54082;DHT22;39986;50.770;0.266;2022-12-18T00:21:12;3.10;99.90
54082;DHT22;39986;50.770;0.266;2022-12-18T00:23:38;3.20;99.90
54082;DHT22;39986;50.770;0.266;2022-12-18T00:26:07;3.30;99.90
54082;DHT22;39986;50.770;0.266;2022-12-18T00:28:33;3.20;99.90
54082;DHT22;39986;50.770;0.266;2022-12-18T00:31:02;3.20;99.90
54082;DHT22;39986;50.770;0.266;2022-12-18T00:33:28;3.20;99.90
54082;DHT22;39986;50.770;0.266;2022-12-18T00:35:54;3.10;99.90
54082;DHT22;39986;50.770;0.266;2022-12-18T00:38:19;3.20;99.90
54082;DHT22;39986;50.770;0.266;2022-12-18T00:40:45;3.20;99.90
54082;DHT22;39986;50.770;0.266;2022-12-18T00:43:10;3.20;99.90
54082;DHT22;39986;50.770;0.266;2022-12-18T00:45:36;3.20;99.90
54082;DHT22;39986;50.770;0.266;2022-12-18T00:48:01;3.50;99.90
54082;DHT22;39986;50.770;0.266;2022-12-18T00:50:52;3.20;99.90
54082;DHT22;39986;50.770;0.266;2022-12-18T00:53:20;3.30;99.90
54082;DHT22;39986;50.770;0.266;2022-12-18T00:55:45;3.20;99.90
54082;DHT22;39986;50.770;0.266;2022-12-18T00:58:12;3.30;99.90
54082;DHT22;39986;50.770;0.266;2022-12-18T01:00:37;3.30;99.90
54082;DHT22;39986;50.770;0.266;2022-12-18T01:03:03;3.20;99.90
54082;DHT22;39986;50.770;0.266;2022-12-18T01:05:29;3.20;99.90
54082;DHT22;39986;50.770;0.266;2022-12-18T01:07:55;3.20;99.90
54082;DHT22;39986;50.770;0.266;2022-12-18T01:10:20;3.40;99.90
54082;DHT22;39986;50.770;0.266;2022-12-18T01:12:46;3.30;99.90
54082;DHT22;39986;50.770;0.266;2022-12-18T01:15:12;3.40;99.90
54082;DHT22;39986;50.770;0.266;2022-12-18T01:17:38;3.40;99.90
54082;DHT22;39986;50.770;0.266;2022-12-18T01:20:04;4.10;99.90
54082;DHT22;39986;50.770;0.266;2022-12-18T01:22:29;3.50;99.90
54082;DHT22;39986;50.770;0.266;2022-12-18T01:24:55;3.50;99.90
54082;DHT22;39986;50.770;0.266;2022-12-18T01:27:20;3.60;99.90
54082;DHT22;39986;50.770;0.266;2022-12-18T01:29:47;4.60;99.90
54082;DHT22;39986;50.770;0.266;2022-12-18T01:32:12;3.60;99.90
54082;DHT22;39986;50.770;0.266;2022-12-18T01:34:38;3.60;99.90
54082;DHT22;39986;50.770;0.266;2022-12-18T01:37:04;3.60;99.90
54082;DHT22;39986;50.770;0.266;2022-12-18T01:39:29;3.60;99.90
54082;DHT22;39986;50.770;0.266;2022-12-18T01:41:55;3.60;99.90
54082;DHT22;39986;50.770;0.266;2022-12-18T01:47:12;3.60;99.90
54082;DHT22;39986;50.770;0.266;2022-12-18T01:49:40;3.70;99.90
54082;DHT22;39986;50.770;0.266;2022-12-18T01:52:07;3.70;99.90
54082;DHT22;39986;50.770;0.266;2022-12-18T01:54:32;3.60;99.90
54082;DHT22;39986;50.770;0.266;2022-12-18T01:56:58;3.50;99.90
54082;DHT22;39986;50.770;0.266;2022-12-18T01:59:24;3.50;99.90
54082;DHT22;39986;50.770;0.266;2022-12-18T02:01:49;3.60;99.90
54082;DHT22;39986;50.770;0.266;2022-12-18T02:04:22;3.60;99.90
54082;DHT22;39986;50.770;0.266;2022-12-18T02:06:54;3.60;99.90
54082;DHT22;39986;50.770;0.266;2022-12-18T02:09:25;4.00;99.90
54082;DHT22;39986;50.770;0.266;2022-12-18T02:11:53;3.60;99.90
54082;DHT22;39986;50.770;0.266;2022-12-18T02:16:55;3.50;99.90
54082;DHT22;39986;50.770;0.266;2022-12-18T02:19:37;3.90;99.90
54082;DHT22;39986;50.770;0.266;2022-12-18T02:22:14;3.60;99.90
54082;DHT22;39986;50.770;0.266;2022-12-18T02:27:30;3.50;99.90
54082;DHT22;39986;50.770;0.266;2022-12-18T02:29:57;3.50;99.90
54082;DHT22;39986;50.770;0.266;2022-12-18T02:32:29;3.50;99.90
54082;DHT22;39986;50.770;0.266;2022-12-18T02:34:56;3.50;99.90
54082;DHT22;39986;50.770;0.266;2022-12-18T02:37:22;3.50;99.90
54082;DHT22;39986;50.770;0.266;2022-12-18T02:39:48;3.50;99.90
54082;DHT22;39986;50.770;0.266;2022-12-18T02:42:16;3.50;99.90
54082;DHT22;39986;50.770;0.266;2022-12-18T02:44:42;3.90;99.90
54082;DHT22;39986;50.770;0.266;2022-12-18T02:47:11;3.50;99.90
54082;DHT22;39986;50.770;0.266;2022-12-18T02:54:54;3.60;99.90
54082;DHT22;39986;50.770;0.266;2022-12-18T03:00:00;3.60;99.90
54082;DHT22;39986;50.770;0.266;2022-12-18T03:02:43;3.60;99.90
54082;DHT22;39986;50.770;0.266;2022-12-18T03:08:00;3.60;99.90
54082;DHT22;39986;50.770;0.266;2022-12-18T03:10:28;3.60;99.90
54082;DHT22;39986;50.770;0.266;2022-12-18T03:12:58;3.50;99.90
54082;DHT22;39986;50.770;0.266;2022-12-18T03:15:28;3.50;99.90
54082;DHT22;39986;50.770;0.266;2022-12-18T03:18:06;3.60;99.90
54082;DHT22;39986;50.770;0.266;2022-12-18T03:20:34;3.60;99.90
54082;DHT22;39986;50.770;0.266;2022-12-18T03:23:09;3.70;99.90
54082;DHT22;39986;50.770;0.266;2022-12-18T03:25:35;3.70;99.90
54082;DHT22;39986;50.770;0.266;2022-12-18T03:28:03;3.60;99.90
54082;DHT22;39986;50.770;0.266;2022-12-18T03:30:31;3.70;99.90
54082;DHT22;39986;50.770;0.266;2022-12-18T03:33:09;3.70;99.90
54082;DHT22;39986;50.770;0.266;2022-12-18T03:35:37;3.70;99.90
54082;DHT22;39986;50.770;0.266;2022-12-18T03:38:04;5.60;99.90
54082;DHT22;39986;50.770;0.266;2022-12-18T03:40:32;3.70;99.90
54082;DHT22;39986;50.770;0.266;2022-12-18T03:43:06;4.70;99.90
54082;DHT22;39986;50.770;0.266;2022-12-18T03:45:44;3.70;99.90
54082;DHT22;39986;50.770;0.266;2022-12-18T03:48:28;3.70;99.90
54082;DHT22;39986;50.770;0.266;2022-12-18T03:55:45;3.70;99.90
54082;DHT22;39986;50.770;0.266;2022-12-18T03:58:13;3.70;99.90
54082;DHT22;39986;50.770;0.266;2022-12-18T04:00:41;3.70;99.90
54082;DHT22;39986;50.770;0.266;2022-12-18T04:03:07;4.10;99.90
54082;DHT22;39986;50.770;0.266;2022-12-18T04:05:34;4.60;99.90
54082;DHT22;39986;50.770;0.266;2022-12-18T04:08:00;3.70;99.90
54082;DHT22;39986;50.770;0.266;2022-12-18T04:10:26;3.80;99.90
54082;DHT22;39986;50.770;0.266;2022-12-18T04:12:55;3.80;99.90
54082;DHT22;39986;50.770;0.266;2022-12-18T04:15:20;3.80;99.90
54082;DHT22;39986;50.770;0.266;2022-12-18T04:17:49;3.90;99.90
54082;DHT22;39986;50.770;0.266;2022-12-18T04:20:15;3.90;99.90
54082;DHT22;39986;50.770;0.266;2022-12-18T04:22:41;3.90;99.90
54082;DHT22;39986;50.770;0.266;2022-12-18T04:25:07;4.20;99.90
54082;DHT22;39986;50.770;0.266;2022-12-18T04:27:32;3.90;99.90
54082;DHT22;39986;50.770;0.266;2022-12-18T04:29:58;3.90;99.90
54082;DHT22;39986;50.770;0.266;2022-12-18T04:32:24;4.10;99.90
54082;DHT22;39986;50.770;0.266;2022-12-18T04:34:49;3.90;99.90
54082;DHT22;39986;50.770;0.266;2022-12-18T04:37:15;3.90;99.90
54082;DHT22;39986;50.770;0.266;2022-12-18T04:39:40;3.90;99.90
54082;DHT22;39986;50.770;0.266;2022-12-18T04:42:06;3.90;99.90
54082;DHT22;39986;50.770;0.266;2022-12-18T04:44:31;3.90;99.90
54082;DHT22;39986;50.770;0.266;2022-12-18T04:46:58;3.90;99.90
54082;DHT22;39986;50.770;0.266;2022-12-18T04:49:30;3.90;99.90
54082;DHT22;39986;50.770;0.266;2022-12-18T04:51:56;3.90;99.90
54082;DHT22;39986;50.770;0.266;2022-12-18T04:54:21;3.90;99.90
54082;DHT22;39986;50.770;0.266;2022-12-18T04:56:47;3.90;99.90
54082;DHT22;39986;50.770;0.266;2022-12-18T04:59:12;4.00;99.90
54082;DHT22;39986;50.770;0.266;2022-12-18T05:01:38;4.00;99.90
54082;DHT22;39986;50.770;0.266;2022-12-18T05:04:04;4.70;99.90
54082;DHT22;39986;50.770;0.266;2022-12-18T05:06:29;3.90;99.90
54082;DHT22;39986;50.770;0.266;2022-12-18T05:08:55;4.00;99.90
54082;DHT22;39986;50.770;0.266;2022-12-18T05:11:20;3.90;99.90
54082;DHT22;39986;50.770;0.266;2022-12-18T05:13:46;3.90;99.90
54082;DHT22;39986;50.770;0.266;2022-12-18T05:16:12;6.60;99.90
54082;DHT22;39986;50.770;0.266;2022-12-18T05:18:38;4.00;99.90
54082;DHT22;39986;50.770;0.266;2022-12-18T05:21:03;4.00;99.90
54082;DHT22;39986;50.770;0.266;2022-12-18T05:23:29;4.00;99.90
54082;DHT22;39986;50.770;0.266;2022-12-18T05:25:56;4.10;99.90
54082;DHT22;39986;50.770;0.266;2022-12-18T05:28:22;4.10;99.90
54082;DHT22;39986;50.770;0.266;2022-12-18T05:30:48;4.00;99.90
54082;DHT22;39986;50.770;0.266;2022-12-18T05:33:15;4.40;99.90
54082;DHT22;39986;50.770;0.266;2022-12-18T05:35:40;4.50;99.90
54082;DHT22;39986;50.770;0.266;2022-12-18T05:38:06;4.10;99.90
54082;DHT22;39986;50.770;0.266;2022-12-18T05:40:31;4.10;99.90
54082;DHT22;39986;50.770;0.266;2022-12-18T05:42:57;4.10;99.90
54082;DHT22;39986;50.770;0.266;2022-12-18T05:45:22;5.00;99.90
54082;DHT22;39986;50.770;0.266;2022-12-18T05:47:48;4.10;99.90
54082;DHT22;39986;50.770;0.266;2022-12-18T05:50:14;4.10;99.90
54082;DHT22;39986;50.770;0.266;2022-12-18T05:52:39;4.20;99.90
54082;DHT22;39986;50.770;0.266;2022-12-18T05:55:05;6.30;99.90
54082;DHT22;39986;50.770;0.266;2022-12-18T05:57:30;4.20;99.90
54082;DHT22;39986;50.770;0.266;2022-12-18T05:59:56;4.30;99.90
54082;DHT22;39986;50.770;0.266;2022-12-18T06:02:21;4.20;99.90
54082;DHT22;39986;50.770;0.266;2022-12-18T06:04:47;4.20;99.90
54082;DHT22;39986;50.770;0.266;2022-12-18T06:07:12;5.00;99.90
54082;DHT22;39986;50.770;0.266;2022-12-18T06:09:38;4.40;99.90
54082;DHT22;39986;50.770;0.266;2022-12-18T06:12:03;5.50;99.90
54082;DHT22;39986;50.770;0.266;2022-12-18T06:14:29;4.30;99.90
54082;DHT22;39986;50.770;0.266;2022-12-18T06:16:54;4.20;99.90
54082;DHT22;39986;50.770;0.266;2022-12-18T06:19:20;4.70;99.90
54082;DHT22;39986;50.770;0.266;2022-12-18T06:21:46;4.40;99.90
54082;DHT22;39986;50.770;0.266;2022-12-18T06:24:12;4.40;99.90
54082;DHT22;39986;50.770;0.266;2022-12-18T06:26:37;4.30;99.90
54082;DHT22;39986;50.770;0.266;2022-12-18T06:29:04;5.00;99.90
54082;DHT22;39986;50.770;0.266;2022-12-18T06:31:29;4.30;99.90
54082;DHT22;39986;50.770;0.266;2022-12-18T06:33:55;4.40;99.90
54082;DHT22;39986;50.770;0.266;2022-12-18T06:36:20;4.40;99.90
54082;DHT22;39986;50.770;0.266;2022-12-18T06:38:46;4.40;99.90
54082;DHT22;39986;50.770;0.266;2022-12-18T06:41:13;4.40;99.90
54082;DHT22;39986;50.770;0.266;2022-12-18T06:43:39;4.30;99.90
54082;DHT22;39986;50.770;0.266;2022-12-18T06:46:05;4.40;99.90
54082;DHT22;39986;50.770;0.266;2022-12-18T06:48:31;4.30;99.90
54082;DHT22;39986;50.770;0.266;2022-12-18T06:50:56;4.30;99.90
54082;DHT22;39986;50.770;0.266;2022-12-18T06:53:22;5.20;99.90
54082;DHT22;39986;50.770;0.266;2022-12-18T06:55:49;4.40;99.90
54082;DHT22;39986;50.770;0.266;2022-12-18T06:58:15;4.40;99.90
54082;DHT22;39986;50.770;0.266;2022-12-18T07:00:40;4.40;99.90
54082;DHT22;39986;50.770;0.266;2022-12-18T07:03:06;4.90;99.90
54082;DHT22;39986;50.770;0.266;2022-12-18T07:05:31;4.50;99.90
54082;DHT22;39986;50.770;0.266;2022-12-18T07:07:57;4.70;99.90
54082;DHT22;39986;50.770;0.266;2022-12-18T07:10:23;4.40;99.90
54082;DHT22;39986;50.770;0.266;2022-12-18T07:12:48;4.40;99.90
54082;DHT22;39986;50.770;0.266;2022-12-18T07:15:14;6.60;99.90
54082;DHT22;39986;50.770;0.266;2022-12-18T07:17:39;4.30;99.90
54082;DHT22;39986;50.770;0.266;2022-12-18T07:20:05;4.90;99.90
54082;DHT22;39986;50.770;0.266;2022-12-18T07:22:31;4.30;99.90
54082;DHT22;39986;50.770;0.266;2022-12-18T07:25:01;4.30;99.90
54082;DHT22;39986;50.770;0.266;2022-12-18T07:27:26;4.30;99.90
54082;DHT22;39986;50.770;0.266;2022-12-18T07:29:52;4.20;99.90
54082;DHT22;39986;50.770;0.266;2022-12-18T07:32:17;4.30;99.90
54082;DHT22;39986;50.770;0.266;2022-12-18T07:34:43;4.20;99.90
54082;DHT22;39986;50.770;0.266;2022-12-18T07:37:09;4.20;99.90
54082;DHT22;39986;50.770;0.266;2022-12-18T07:39:34;4.20;99.90
54082;DHT22;39986;50.770;0.266;2022-12-18T07:42:00;4.20;99.90
54082;DHT22;39986;50.770;0.266;2022-12-18T07:44:44;4.20;99.90
54082;DHT22;39986;50.770;0.266;2022-12-18T07:47:10;4.20;99.90
54082;DHT22;39986;50.770;0.266;2022-12-18T07:49:36;4.20;99.90
54082;DHT22;39986;50.770;0.266;2022-12-18T07:52:02;4.20;99.90
54082;DHT22;39986;50.770;0.266;2022-12-18T07:54:28;4.10;99.90
54082;DHT22;39986;50.770;0.266;2022-12-18T07:56:53;4.10;99.90
54082;DHT22;39986;50.770;0.266;2022-12-18T07:59:19;4.60;99.90
54082;DHT22;39986;50.770;0.266;2022-12-18T08:01:44;4.20;99.90
54082;DHT22;39986;50.770;0.266;2022-12-18T08:04:10;5.20;99.90
54082;DHT22;39986;50.770;0.266;2022-12-18T08:06:35;4.00;99.90
54082;DHT22;39986;50.770;0.266;2022-12-18T08:09:01;4.50;99.90
54082;DHT22;39986;50.770;0.266;2022-12-18T08:11:27;4.00;99.90
54082;DHT22;39986;50.770;0.266;2022-12-18T08:13:53;3.90;99.90
54082;DHT22;39986;50.770;0.266;2022-12-18T08:16:19;3.90;99.90
54082;DHT22;39986;50.770;0.266;2022-12-18T08:18:45;3.90;99.90
54082;DHT22;39986;50.770;0.266;2022-12-18T08:21:11;3.90;99.90
54082;DHT22;39986;50.770;0.266;2022-12-18T08:23:37;3.90;99.90
54082;DHT22;39986;50.770;0.266;2022-12-18T08:26:03;3.90;99.90
54082;DHT22;39986;50.770;0.266;2022-12-18T08:28:54;3.80;99.90
54082;DHT22;39986;50.770;0.266;2022-12-18T08:31:22;4.10;99.90
54082;DHT22;39986;50.770;0.266;2022-12-18T08:33:48;3.90;99.90
54082;DHT22;39986;50.770;0.266;2022-12-18T08:36:14;3.90;99.90
54082;DHT22;39986;50.770;0.266;2022-12-18T08:38:40;3.80;99.90
54082;DHT22;39986;50.770;0.266;2022-12-18T08:41:06;3.80;99.90
54082;DHT22;39986;50.770;0.266;2022-12-18T08:43:32;4.70;99.90
54082;DHT22;39986;50.770;0.266;2022-12-18T08:46:17;3.90;99.90
54082;DHT22;39986;50.770;0.266;2022-12-18T08:48:43;3.90;99.90
54082;DHT22;39986;50.770;0.266;2022-12-18T08:51:09;4.00;99.90
54082;DHT22;39986;50.770;0.266;2022-12-18T08:53:35;3.90;99.90
54082;DHT22;39986;50.770;0.266;2022-12-18T08:56:01;3.90;99.90
54082;DHT22;39986;50.770;0.266;2022-12-18T08:58:26;3.90;99.90
54082;DHT22;39986;50.770;0.266;2022-12-18T09:00:52;3.90;99.90
54082;DHT22;39986;50.770;0.266;2022-12-18T09:03:18;4.00;99.90
54082;DHT22;39986;50.770;0.266;2022-12-18T09:05:45;3.90;99.90
54082;DHT22;39986;50.770;0.266;2022-12-18T09:08:11;4.00;99.90
54082;DHT22;39986;50.770;0.266;2022-12-18T09:10:43;4.00;99.90
54082;DHT22;39986;50.770;0.266;2022-12-18T09:13:09;3.90;99.90
54082;DHT22;39986;50.770;0.266;2022-12-18T09:15:40;4.90;99.90
54082;DHT22;39986;50.770;0.266;2022-12-18T09:18:05;4.00;99.90
54082;DHT22;39986;50.770;0.266;2022-12-18T09:20:31;4.00;99.90
54082;DHT22;39986;50.770;0.266;2022-12-18T09:22:56;4.00;99.90
54082;DHT22;39986;50.770;0.266;2022-12-18T09:25:22;4.00;99.90
54082;DHT22;39986;50.770;0.266;2022-12-18T09:27:47;5.60;99.90
54082;DHT22;39986;50.770;0.266;2022-12-18T09:30:13;4.10;99.90
54082;DHT22;39986;50.770;0.266;2022-12-18T09:32:39;4.10;99.90
54082;DHT22;39986;50.770;0.266;2022-12-18T09:35:04;4.20;99.90
54082;DHT22;39986;50.770;0.266;2022-12-18T09:37:30;4.20;99.90
54082;DHT22;39986;50.770;0.266;2022-12-18T09:39:56;4.20;99.90
54082;DHT22;39986;50.770;0.266;2022-12-18T09:42:22;4.20;99.90
54082;DHT22;39986;50.770;0.266;2022-12-18T09:44:51;4.20;99.90
54082;DHT22;39986;50.770;0.266;2022-12-18T09:47:19;4.60;99.90
54082;DHT22;39986;50.770;0.266;2022-12-18T09:50:49;4.60;99.90
54082;DHT22;39986;50.770;0.266;2022-12-18T09:52:45;4.40;99.90
54082;DHT22;39986;50.770;0.266;2022-12-18T09:55:24;4.40;99.90
54082;DHT22;39986;50.770;0.266;2022-12-18T09:58:39;4.40;99.90
54082;DHT22;39986;50.770;0.266;2022-12-18T10:00:36;4.50;99.90
54082;DHT22;39986;50.770;0.266;2022-12-18T10:03:09;4.50;99.90
54082;DHT22;39986;50.770;0.266;2022-12-18T10:05:41;4.50;99.90
54082;DHT22;39986;50.770;0.266;2022-12-18T10:10:46;4.60;99.90
54082;DHT22;39986;50.770;0.266;2022-12-18T10:18:17;4.50;99.90
54082;DHT22;39986;50.770;0.266;2022-12-18T10:20:48;4.60;99.90
54082;DHT22;39986;50.770;0.266;2022-12-18T10:23:19;4.60;99.90
54082;DHT22;39986;50.770;0.266;2022-12-18T10:26:06;4.60;99.90
54082;DHT22;39986;50.770;0.266;2022-12-18T10:28:34;4.60;99.90
54082;DHT22;39986;50.770;0.266;2022-12-18T10:31:01;4.60;99.90
54082;DHT22;39986;50.770;0.266;2022-12-18T10:33:28;4.70;99.90
54082;DHT22;39986;50.770;0.266;2022-12-18T10:35:54;4.60;99.90
54082;DHT22;39986;50.770;0.266;2022-12-18T10:38:21;4.70;99.90
54082;DHT22;39986;50.770;0.266;2022-12-18T10:40:55;4.70;99.90
54082;DHT22;39986;50.770;0.266;2022-12-18T10:43:22;4.70;99.90
54082;DHT22;39986;50.770;0.266;2022-12-18T10:48:24;4.60;99.90
54082;DHT22;39986;50.770;0.266;2022-12-18T10:50:53;4.60;99.90
54082;DHT22;39986;50.770;0.266;2022-12-18T10:53:22;4.60;99.90
54082;DHT22;39986;50.770;0.266;2022-12-18T10:55:49;4.70;99.90
54082;DHT22;39986;50.770;0.266;2022-12-18T10:58:31;4.60;99.90
54082;DHT22;39986;50.770;0.266;2022-12-18T11:03:36;4.60;99.90
54082;DHT22;39986;50.770;0.266;2022-12-18T11:06:12;4.80;99.90
54082;DHT22;39986;50.770;0.266;2022-12-18T11:08:38;4.70;99.90
54082;DHT22;39986;50.770;0.266;2022-12-18T11:11:06;4.60;99.90
54082;DHT22;39986;50.770;0.266;2022-12-18T11:13:32;4.60;99.90
54082;DHT22;39986;50.770;0.266;2022-12-18T11:15:58;4.60;99.90
54082;DHT22;39986;50.770;0.266;2022-12-18T11:18:33;4.60;99.90
54082;DHT22;39986;50.770;0.266;2022-12-18T11:23:25;4.60;99.90
54082;DHT22;39986;50.770;0.266;2022-12-18T11:25:52;5.20;99.90
54082;DHT22;39986;50.770;0.266;2022-12-18T11:28:29;4.50;99.90
54082;DHT22;39986;50.770;0.266;2022-12-18T11:31:32;4.50;99.90
54082;DHT22;39986;50.770;0.266;2022-12-18T11:36:39;4.50;99.90
54082;DHT22;39986;50.770;0.266;2022-12-18T11:39:12;4.50;99.90
54082;DHT22;39986;50.770;0.266;2022-12-18T11:41:42;4.50;99.90
54082;DHT22;39986;50.770;0.266;2022-12-18T11:44:28;4.40;99.90
54082;DHT22;39986;50.770;0.266;2022-12-18T11:46:59;4.50;99.90
54082;DHT22;39986;50.770;0.266;2022-12-18T11:49:27;4.50;99.90
54082;DHT22;39986;50.770;0.266;2022-12-18T11:54:19;4.90;99.90
54082;DHT22;39986;50.770;0.266;2022-12-18T11:56:51;4.50;99.90
54082;DHT22;39986;50.770;0.266;2022-12-18T12:09:23;4.50;99.90
54082;DHT22;39986;50.770;0.266;2022-12-18T12:22:13;4.40;99.90
54082;DHT22;39986;50.770;0.266;2022-12-18T12:27:29;4.50;99.90
54082;DHT22;39986;50.770;0.266;2022-12-18T12:40:18;4.50;99.90
54082;DHT22;39986;50.770;0.266;2022-12-18T12:42:54;4.60;99.90
54082;DHT22;39986;50.770;0.266;2022-12-18T12:46:00;4.90;99.90
54082;DHT22;39986;50.770;0.266;2022-12-18T12:51:17;4.60;99.90
54082;DHT22;39986;50.770;0.266;2022-12-18T12:53:44;4.90;99.90
54082;DHT22;39986;50.770;0.266;2022-12-18T12:56:11;4.70;99.90
54082;DHT22;39986;50.770;0.266;2022-12-18T12:58:41;4.70;99.90
54082;DHT22;39986;50.770;0.266;2022-12-18T13:01:28;5.60;99.90
54082;DHT22;39986;50.770;0.266;2022-12-18T13:04:30;4.80;99.90
54082;DHT22;39986;50.770;0.266;2022-12-18T13:09:23;4.80;99.90
54082;DHT22;39986;50.770;0.266;2022-12-18T13:11:49;4.90;99.90
54082;DHT22;39986;50.770;0.266;2022-12-18T13:19:42;5.00;99.90
54082;DHT22;39986;50.770;0.266;2022-12-18T13:22:23;5.20;99.90
54082;DHT22;39986;50.770;0.266;2022-12-18T13:24:50;5.00;99.90
54082;DHT22;39986;50.770;0.266;2022-12-18T13:27:58;6.40;99.90
54082;DHT22;39986;50.770;0.266;2022-12-18T13:35:40;5.20;99.90
54082;DHT22;39986;50.770;0.266;2022-12-18T13:46:00;5.40;99.90
54082;DHT22;39986;50.770;0.266;2022-12-18T13:48:27;5.40;99.90
54082;DHT22;39986;50.770;0.266;2022-12-18T13:50:57;5.40;99.90
54082;DHT22;39986;50.770;0.266;2022-12-18T13:53:26;5.40;99.90
54082;DHT22;39986;50.770;0.266;2022-12-18T13:55:52;6.30;99.90
54082;DHT22;39986;50.770;0.266;2022-12-18T13:58:17;5.50;99.90
54082;DHT22;39986;50.770;0.266;2022-12-18T14:00:43;5.50;99.90
54082;DHT22;39986;50.770;0.266;2022-12-18T14:03:19;5.90;99.90
54082;DHT22;39986;50.770;0.266;2022-12-18T14:05:45;5.60;99.90
54082;DHT22;39986;50.770;0.266;2022-12-18T14:08:14;5.80;99.90
54082;DHT22;39986;50.770;0.266;2022-12-18T14:10:47;5.60;99.90
54082;DHT22;39986;50.770;0.266;2022-12-18T14:13:23;5.70;99.90
54082;DHT22;39986;50.770;0.266;2022-12-18T14:15:49;5.70;99.90
54082;DHT22;39986;50.770;0.266;2022-12-18T14:18:22;6.50;99.90
54082;DHT22;39986;50.770;0.266;2022-12-18T14:20:49;5.80;99.90
54082;DHT22;39986;50.770;0.266;2022-12-18T14:25:53;5.90;99.90
54082;DHT22;39986;50.770;0.266;2022-12-18T14:28:18;6.80;99.90
54082;DHT22;39986;50.770;0.266;2022-12-18T14:30:45;6.20;99.90
54082;DHT22;39986;50.770;0.266;2022-12-18T14:33:11;6.00;99.90
54082;DHT22;39986;50.770;0.266;2022-12-18T14:35:38;6.00;99.90
54082;DHT22;39986;50.770;0.266;2022-12-18T14:38:47;6.20;99.90
54082;DHT22;39986;50.770;0.266;2022-12-18T14:40:54;6.10;99.90
54082;DHT22;39986;50.770;0.266;2022-12-18T14:43:20;6.80;99.90
54082;DHT22;39986;50.770;0.266;2022-12-18T14:45:46;6.20;99.90
54082;DHT22;39986;50.770;0.266;2022-12-18T14:50:40;6.30;99.90
54082;DHT22;39986;50.770;0.266;2022-12-18T14:53:06;6.30;99.90
54082;DHT22;39986;50.770;0.266;2022-12-18T14:55:44;6.40;99.90
54082;DHT22;39986;50.770;0.266;2022-12-18T14:58:10;6.30;99.90
54082;DHT22;39986;50.770;0.266;2022-12-18T15:00:40;6.40;99.90
54082;DHT22;39986;50.770;0.266;2022-12-18T15:03:06;7.20;99.90
54082;DHT22;39986;50.770;0.266;2022-12-18T15:05:33;6.40;99.90
54082;DHT22;39986;50.770;0.266;2022-12-18T15:08:00;6.40;99.90
54082;DHT22;39986;50.770;0.266;2022-12-18T15:10:29;6.50;99.90
54082;DHT22;39986;50.770;0.266;2022-12-18T15:18:09;6.50;99.90
54082;DHT22;39986;50.770;0.266;2022-12-18T15:23:12;6.50;99.90
54082;DHT22;39986;50.770;0.266;2022-12-18T15:25:38;6.50;99.90
54082;DHT22;39986;50.770;0.266;2022-12-18T15:28:04;6.50;99.90
54082;DHT22;39986;50.770;0.266;2022-12-18T15:30:57;6.50;99.90
54082;DHT22;39986;50.770;0.266;2022-12-18T15:33:23;6.50;99.90
54082;DHT22;39986;50.770;0.266;2022-12-18T15:35:56;6.50;99.90
54082;DHT22;39986;50.770;0.266;2022-12-18T15:38:22;6.60;99.90
54082;DHT22;39986;50.770;0.266;2022-12-18T15:40:47;7.70;99.90
54082;DHT22;39986;50.770;0.266;2022-12-18T15:43:13;6.70;99.90
54082;DHT22;39986;50.770;0.266;2022-12-18T15:46:03;6.60;99.90
54082;DHT22;39986;50.770;0.266;2022-12-18T15:48:29;6.60;99.90
54082;DHT22;39986;50.770;0.266;2022-12-18T15:50:55;6.60;99.90
54082;DHT22;39986;50.770;0.266;2022-12-18T15:53:22;7.40;99.90
54082;DHT22;39986;50.770;0.266;2022-12-18T15:55:48;6.90;99.90
54082;DHT22;39986;50.770;0.266;2022-12-18T15:58:32;6.70;99.90
54082;DHT22;39986;50.770;0.266;2022-12-18T16:00:58;6.70;99.90
54082;DHT22;39986;50.770;0.266;2022-12-18T16:03:24;6.70;99.90
54082;DHT22;39986;50.770;0.266;2022-12-18T16:05:50;6.70;99.90
54082;DHT22;39986;50.770;0.266;2022-12-18T16:08:16;6.70;99.90
54082;DHT22;39986;50.770;0.266;2022-12-18T16:10:41;6.80;99.90
54082;DHT22;39986;50.770;0.266;2022-12-18T16:13:09;6.80;99.90
54082;DHT22;39986;50.770;0.266;2022-12-18T16:15:35;6.80;99.90
54082;DHT22;39986;50.770;0.266;2022-12-18T16:18:00;6.80;99.90
54082;DHT22;39986;50.770;0.266;2022-12-18T16:20:26;6.70;99.90
54082;DHT22;39986;50.770;0.266;2022-12-18T16:22:51;6.80;99.90
54082;DHT22;39986;50.770;0.266;2022-12-18T16:25:22;6.80;99.90
54082;DHT22;39986;50.770;0.266;2022-12-18T16:27:48;6.80;99.90
54082;DHT22;39986;50.770;0.266;2022-12-18T16:30:24;6.80;99.90
54082;DHT22;39986;50.770;0.266;2022-12-18T16:32:51;6.80;99.90
54082;DHT22;39986;50.770;0.266;2022-12-18T16:35:17;6.80;99.90
54082;DHT22;39986;50.770;0.266;2022-12-18T16:37:42;6.80;99.90
54082;DHT22;39986;50.770;0.266;2022-12-18T16:40:09;6.90;99.90
54082;DHT22;39986;50.770;0.266;2022-12-18T16:42:36;6.80;99.90
54082;DHT22;39986;50.770;0.266;2022-12-18T16:45:02;6.70;99.90
54082;DHT22;39986;50.770;0.266;2022-12-18T16:47:27;6.70;99.90
54082;DHT22;39986;50.770;0.266;2022-12-18T16:49:57;6.80;99.90
54082;DHT22;39986;50.770;0.266;2022-12-18T16:52:22;6.70;99.90
54082;DHT22;39986;50.770;0.266;2022-12-18T16:54:48;6.70;99.90
54082;DHT22;39986;50.770;0.266;2022-12-18T16:57:14;6.70;99.90
54082;DHT22;39986;50.770;0.266;2022-12-18T16:59:40;6.70;99.90
54082;DHT22;39986;50.770;0.266;2022-12-18T17:02:11;6.70;99.90
54082;DHT22;39986;50.770;0.266;2022-12-18T17:04:38;6.80;99.90
54082;DHT22;39986;50.770;0.266;2022-12-18T17:07:03;6.80;99.90
54082;DHT22;39986;50.770;0.266;2022-12-18T17:09:29;6.70;99.90
54082;DHT22;39986;50.770;0.266;2022-12-18T17:11:54;6.70;99.90
54082;DHT22;39986;50.770;0.266;2022-12-18T17:14:21;6.70;99.90
54082;DHT22;39986;50.770;0.266;2022-12-18T17:16:46;6.70;99.90
54082;DHT22;39986;50.770;0.266;2022-12-18T17:19:12;7.50;99.90
54082;DHT22;39986;50.770;0.266;2022-12-18T17:21:39;6.80;99.90
54082;DHT22;39986;50.770;0.266;2022-12-18T17:24:04;6.90;99.90
54082;DHT22;39986;50.770;0.266;2022-12-18T17:26:30;6.80;99.90
54082;DHT22;39986;50.770;0.266;2022-12-18T17:28:56;8.30;99.90
54082;DHT22;39986;50.770;0.266;2022-12-18T17:31:22;6.90;99.90
54082;DHT22;39986;50.770;0.266;2022-12-18T17:33:48;6.80;99.90
54082;DHT22;39986;50.770;0.266;2022-12-18T17:36:15;6.80;99.90
54082;DHT22;39986;50.770;0.266;2022-12-18T17:38:40;7.20;99.90
54082;DHT22;39986;50.770;0.266;2022-12-18T17:41:07;7.80;99.90
54082;DHT22;39986;50.770;0.266;2022-12-18T17:43:32;6.90;99.90
54082;DHT22;39986;50.770;0.266;2022-12-18T17:46:02;6.90;99.90